ENHF

Details ICAO ENHF (HFT)
Name Hammerfest
Region Norway
Timezone Europe/Oslo (UTC+1.0)
Plans Departing 32
Arriving 47
Stats Elevation 266 ft / 81 m (AMSL)
Location 70.679581° 23.668222°
Runways 1
Magnetic Variation 11.872° E
Sunrise Unknown / Unknown
Sunset Unknown / Unknown
Advertisement - Login to hide

Runways

ID Width Length Bearing (true) Bearing (mag) Surface Threshold Offset Overrun Length
05 98 ft / 30 m 2,899 ft / 884 m 55.93° 44.06° Asphalt 135 ft / 41 m 0 ft / 0 m
23 98 ft / 30 m 2,899 ft / 884 m 235.95° 224.08° Asphalt 135 ft / 41 m 0 ft / 0 m

Approach Navaids

Runway Type Ident Frequency Range Bearing (true) Bearing (mag) Slope Elevation
05 Localiser HA 111.35 MHz 18 nm / 33 km 54.60° 42.72° - 262 ft / 80 m (AMSL)
05 DME HA 111.35 MHz 18 nm / 33 km - - - 262 ft / 80 m (AMSL)
23 Localiser HF 110.70 MHz 18 nm / 33 km 234.60° 222.72° - 262 ft / 80 m (AMSL)
23 DME HF 110.70 MHz 18 nm / 33 km - - - 262 ft / 80 m (AMSL)

Map

Weather


0- 5 10 15 20 25 30 35+ Temperature / ° C

Clouds and Precipitation
Forecast for 2017-12-12 18:00 UTC. Updated an hour ago

Ground ~20,000 ft ~40,000 ft Winds

METAR

ENHF 121750Z 20007KT 160V240 CAVOK M02/M07 Q0993 RMK WIND 1254FT 19017KT

TAF

Not found
Warning: Do not use this data for real-world aviation or navigation. No guarantee of current accuracy is given.